Time;durP1;ratioP1;P1;durP2;ratioP2;P2;SDS_P1;SDS_P2;PMS_P1;PMS_P2;Temp;Humidity;BMP_temperature;BMP_pressure;BME280_temperature;BME280_humidity;BME280_pressure;Samples;Min_cycle;Max_cycle;Signal;HPM_P1;HPM_P2
2021/04/05 00:01:15;;;;;;;10.95;6.53;;;7.00;92.10;;;;;;5078043;28;20225;-86
2021/04/05 00:03:42;;;;;;;10.37;6.67;;;7.00;92.20;;;;;;5078160;28;20251;-85
2021/04/05 00:06:08;;;;;;;11.77;6.60;;;7.00;92.20;;;;;;5066445;28;20503;-85
2021/04/05 00:08:35;;;;;;;14.40;6.72;;;7.00;92.20;;;;;;5057231;28;20551;-85
2021/04/05 00:11:02;;;;;;;12.38;6.10;;;6.90;92.30;;;;;;5056352;28;20297;-86
2021/04/05 00:13:33;;;;;;;10.60;6.10;;;7.10;92.50;;;;;;5056046;28;20210;-86
2021/04/05 00:15:59;;;;;;;9.52;6.10;;;6.80;93.00;;;;;;5056827;28;20296;-86
2021/04/05 00:18:29;;;;;;;15.57;6.80;;;6.90;92.70;;;;;;5056820;28;20282;-86
2021/04/05 00:20:59;;;;;;;10.20;6.00;;;6.80;92.70;;;;;;5071379;28;20233;-84
2021/04/05 00:23:26;;;;;;;11.00;7.25;;;6.90;93.00;;;;;;5077390;28;20464;-85
2021/04/05 00:25:53;;;;;;;12.07;8.30;;;6.90;93.30;;;;;;5075710;28;20256;-86
2021/04/05 00:28:20;;;;;;;13.60;6.60;;;6.80;93.20;;;;;;5076148;28;20212;-85
2021/04/05 00:30:46;;;;;;;9.00;5.90;;;7.00;93.10;;;;;;5087406;28;20536;-84
2021/04/05 00:33:13;;;;;;;11.30;5.88;;;6.90;93.10;;;;;;5095489;28;20213;-85
2021/04/05 00:35:40;;;;;;;10.50;5.90;;;6.90;93.00;;;;;;5095421;28;20276;-85
2021/04/05 00:38:08;;;;;;;8.90;6.10;;;7.00;92.80;;;;;;5099771;28;20436;-85
2021/04/05 00:40:37;;;;;;;9.90;6.07;;;6.90;92.90;;;;;;5100489;28;20300;-85
2021/04/05 00:43:05;;;;;;;11.10;5.65;;;6.60;93.00;;;;;;5101066;28;20585;-85
2021/04/05 00:45:34;;;;;;;12.38;7.40;;;6.90;93.40;;;;;;5100510;28;20251;-85
2021/04/05 00:48:01;;;;;;;12.43;5.57;;;6.80;93.30;;;;;;5101932;28;20200;-84
2021/04/05 00:50:37;;;;;;;10.00;5.83;;;6.70;93.30;;;;;;5085629;28;20206;-86
2021/04/05 00:53:06;;;;;;;14.35;6.25;;;6.70;93.40;;;;;;5066366;28;20455;-86
2021/04/05 00:55:32;;;;;;;10.23;6.22;;;6.90;93.60;;;;;;5080860;28;20236;-85
2021/04/05 00:58:00;;;;;;;9.63;5.70;;;6.90;93.60;;;;;;5073534;28;20202;-85
2021/04/05 01:00:42;;;;;;;7.75;5.30;;;6.80;93.50;;;;;;5073713;28;20285;-85
2021/04/05 01:03:11;;;;;;;9.73;5.35;;;6.70;93.40;;;;;;5081080;28;20194;-85
2021/04/05 01:05:39;;;;;;;14.98;6.15;;;6.70;93.60;;;;;;5083121;28;20229;-85
2021/04/05 01:08:05;;;;;;;8.45;5.25;;;6.90;93.10;;;;;;5092119;28;20253;-84
2021/04/05 01:10:33;;;;;;;11.50;5.60;;;7.00;93.00;;;;;;5093057;28;20248;-85
2021/04/05 01:13:00;;;;;;;12.77;5.82;;;6.90;93.10;;;;;;5086167;28;20474;-85
2021/04/05 01:15:26;;;;;;;12.27;6.03;;;7.00;93.10;;;;;;5076810;28;20319;-85
2021/04/05 01:17:53;;;;;;;13.05;5.90;;;7.00;92.90;;;;;;5068840;28;20511;-84
2021/04/05 01:20:20;;;;;;;8.70;5.70;;;6.90;93.30;;;;;;5082787;28;20206;-84
2021/04/05 01:22:50;;;;;;;11.18;5.60;;;6.80;93.20;;;;;;5085809;28;20440;-85
2021/04/05 01:25:18;;;;;;;10.88;5.35;;;6.50;93.40;;;;;;5084675;28;20276;-84
2021/04/05 01:27:45;;;;;;;11.80;6.47;;;6.50;93.80;;;;;;5083866;28;20233;-84
2021/04/05 01:30:27;;;;;;;10.50;6.32;;;6.70;94.10;;;;;;5083719;28;20252;-85
2021/04/05 01:33:04;;;;;;;9.52;6.10;;;6.40;94.20;;;;;;5083695;28;20201;-84
2021/04/05 01:35:32;;;;;;;10.95;5.95;;;6.30;94.50;;;;;;5083658;28;20308;-85
2021/04/05 01:37:59;;;;;;;9.47;6.00;;;6.50;94.60;;;;;;5084013;28;20328;-84
2021/04/05 01:40:26;;;;;;;8.90;5.70;;;6.40;94.60;;;;;;5083402;28;20509;-84
2021/04/05 01:42:52;;;;;;;8.70;5.80;;;6.20;94.70;;;;;;5083513;28;20225;-85
2021/04/05 01:45:19;;;;;;;9.30;5.70;;;6.60;94.90;;;;;;5083047;28;20289;-85
2021/04/05 01:47:45;;;;;;;7.32;5.10;;;6.50;94.80;;;;;;5071231;28;20266;-85
2021/04/05 01:50:14;;;;;;;9.32;5.45;;;6.60;94.70;;;;;;5077992;28;20260;-84
2021/04/05 01:52:41;;;;;;;9.98;6.18;;;6.40;94.60;;;;;;5083384;28;20230;-85
2021/04/05 01:55:10;;;;;;;9.07;5.40;;;6.40;94.60;;;;;;5083990;28;20223;-84
2021/04/05 01:57:37;;;;;;;15.70;6.35;;;6.50;94.80;;;;;;5084568;28;20259;-85
2021/04/05 02:00:09;;;;;;;8.73;4.50;;;6.40;95.00;;;;;;5078993;28;20194;-85
2021/04/05 02:02:37;;;;;;;9.83;4.70;;;6.70;94.90;;;;;;5073814;28;20213;-84
2021/04/05 02:05:07;;;;;;;12.80;5.53;;;6.60;94.70;;;;;;5086437;28;20537;-85
2021/04/05 02:07:35;;;;;;;9.50;5.55;;;6.70;94.70;;;;;;5085181;28;20292;-84
2021/04/05 02:10:09;;;;;;;16.08;5.65;;;6.40;94.40;;;;;;5086664;28;20214;-85
2021/04/05 02:12:37;;;;;;;8.63;5.57;;;6.60;94.80;;;;;;5085605;28;20221;-85
2021/04/05 02:15:08;;;;;;;11.30;5.22;;;6.50;94.80;;;;;;5085865;28;20267;-85
2021/04/05 02:17:34;;;;;;;11.23;5.05;;;6.20;94.80;;;;;;5091624;28;20209;-85
2021/04/05 02:20:01;;;;;;;11.68;4.55;;;6.40;95.00;;;;;;5090804;28;20221;-85
2021/04/05 02:22:27;;;;;;;10.70;5.25;;;6.50;94.80;;;;;;5080466;28;20672;-85
2021/04/05 02:24:54;;;;;;;12.13;5.30;;;6.50;94.80;;;;;;5079399;28;20281;-85
2021/04/05 02:27:22;;;;;;;8.75;4.85;;;6.20;94.80;;;;;;5080130;28;20212;-85
2021/04/05 02:29:51;;;;;;;8.00;4.87;;;6.50;94.90;;;;;;5078363;28;20204;-84
2021/04/05 02:32:17;;;;;;;9.73;5.10;;;6.30;95.00;;;;;;5078703;28;20491;-85
2021/04/05 02:34:44;;;;;;;10.23;5.05;;;6.40;95.50;;;;;;5079371;28;20202;-85
2021/04/05 02:37:13;;;;;;;11.50;5.57;;;6.40;95.40;;;;;;5082065;28;20249;-84
2021/04/05 02:39:39;;;;;;;7.93;4.97;;;6.40;95.40;;;;;;5083293;28;20656;-84
2021/04/05 02:42:08;;;;;;;8.63;5.00;;;6.50;95.40;;;;;;5084393;28;20714;-84
2021/04/05 02:44:36;;;;;;;8.30;4.70;;;6.30;95.30;;;;;;5085916;28;20285;-85
2021/04/05 02:47:03;;;;;;;14.68;5.80;;;6.50;95.50;;;;;;5082519;28;20305;-85
2021/04/05 02:49:30;;;;;;;7.55;4.75;;;6.50;95.50;;;;;;5080097;28;20553;-85
2021/04/05 02:51:58;;;;;;;10.23;6.55;;;6.50;95.50;;;;;;5078858;28;20927;-86
2021/04/05 02:54:25;;;;;;;15.68;5.50;;;6.40;95.70;;;;;;5091853;28;20197;-84
2021/04/05 02:56:53;;;;;;;11.43;5.30;;;6.30;95.40;;;;;;5094675;28;20242;-85
2021/04/05 02:59:21;;;;;;;8.98;4.57;;;6.50;95.60;;;;;;5078008;28;20451;-85
2021/04/05 03:01:48;;;;;;;9.00;5.13;;;6.10;95.70;;;;;;5078416;28;20206;-84
2021/04/05 03:04:16;;;;;;;7.72;5.13;;;6.10;95.80;;;;;;5078087;28;20194;-85
2021/04/05 03:06:42;;;;;;;9.30;5.15;;;6.10;96.00;;;;;;5078113;28;20637;-85
2021/04/05 03:09:09;;;;;;;14.05;5.50;;;6.20;96.00;;;;;;5077148;28;20814;-85
2021/04/05 03:11:37;;;;;;;13.93;5.28;;;6.10;96.00;;;;;;5081321;28;20271;-86
2021/04/05 03:14:05;;;;;;;10.60;5.90;;;6.00;96.10;;;;;;5079808;28;20197;-85
2021/04/05 03:16:32;;;;;;;6.38;4.75;;;6.20;96.20;;;;;;5079840;28;20270;-85
2021/04/05 03:19:02;;;;;;;10.00;4.75;;;5.90;96.20;;;;;;5084229;28;20210;-85
2021/04/05 03:21:30;;;;;;;11.40;6.45;;;6.20;96.50;;;;;;5083076;28;20179;-84
2021/04/05 03:24:00;;;;;;;7.72;5.22;;;6.20;96.40;;;;;;5081145;28;20210;-85
2021/04/05 03:26:26;;;;;;;10.70;4.72;;;6.00;96.40;;;;;;5088058;28;20252;-84
2021/04/05 03:28:53;;;;;;;13.35;6.13;;;5.90;96.50;;;;;;5086192;28;20213;-85
2021/04/05 03:31:23;;;;;;;9.95;6.00;;;5.90;96.60;;;;;;5092590;28;20261;-85
2021/04/05 03:33:52;;;;;;;8.40;4.82;;;6.20;96.70;;;;;;5094297;28;20233;-84
2021/04/05 03:36:25;;;;;;;12.90;4.95;;;6.20;96.60;;;;;;5090277;28;20225;-85
2021/04/05 03:38:52;;;;;;;11.60;5.32;;;6.10;96.60;;;;;;5091775;28;20212;-85
2021/04/05 03:41:27;;;;;;;8.88;4.80;;;5.80;96.60;;;;;;5086260;28;20284;-84
2021/04/05 03:44:01;;;;;;;8.80;5.35;;;6.00;96.70;;;;;;5078951;28;20201;-84
2021/04/05 03:46:33;;;;;;;10.65;5.97;;;5.80;96.70;;;;;;5078423;28;20218;-84
2021/04/05 03:49:06;;;;;;;8.75;5.20;;;6.00;97.00;;;;;;5081218;28;20186;-84
2021/04/05 03:51:39;;;;;;;10.65;5.25;;;5.80;97.10;;;;;;5078715;28;20546;-84
2021/04/05 03:54:08;;;;;;;8.45;4.80;;;5.80;97.40;;;;;;5078944;28;20274;-85
2021/04/05 03:56:40;;;;;;;11.10;5.28;;;5.80;97.40;;;;;;5075721;28;20739;-85
2021/04/05 03:59:10;;;;;;;10.05;5.35;;;6.00;97.70;;;;;;5071709;28;20263;-85
2021/04/05 04:01:44;;;;;;;10.88;5.38;;;5.80;97.70;;;;;;5071822;28;20209;-85
2021/04/05 04:04:13;;;;;;;9.85;4.97;;;6.00;97.70;;;;;;5084069;28;20249;-85
2021/04/05 04:06:44;;;;;;;8.77;5.43;;;5.90;97.40;;;;;;5078460;28;20230;-84
2021/04/05 04:09:13;;;;;;;11.05;5.47;;;5.90;97.50;;;;;;5078556;28;20613;-85
2021/04/05 04:11:40;;;;;;;10.10;5.70;;;5.80;97.60;;;;;;5077604;28;20206;-85
2021/04/05 04:14:09;;;;;;;11.18;5.63;;;5.70;97.70;;;;;;5074654;28;20569;-84
2021/04/05 04:16:36;;;;;;;8.27;4.53;;;5.80;97.80;;;;;;5067368;28;20214;-85
2021/04/05 04:19:05;;;;;;;9.50;5.90;;;5.80;97.80;;;;;;5078216;28;20235;-85
2021/04/05 04:21:32;;;;;;;8.75;5.38;;;6.00;98.00;;;;;;5078782;28;20202;-85
2021/04/05 04:24:01;;;;;;;8.75;5.65;;;6.00;98.00;;;;;;5080272;28;20627;-85
2021/04/05 04:26:32;;;;;;;15.37;5.87;;;5.90;98.00;;;;;;5080082;28;20225;-84
2021/04/05 04:28:58;;;;;;;10.75;5.90;;;5.80;97.90;;;;;;5080599;28;20421;-85
2021/04/05 04:31:25;;;;;;;8.48;5.32;;;5.90;98.10;;;;;;5072174;28;20340;-86
2021/04/05 04:33:51;;;;;;;9.68;5.00;;;5.70;98.10;;;;;;5086340;28;20217;-85
2021/04/05 04:36:22;;;;;;;10.48;6.03;;;5.90;98.20;;;;;;5081514;28;20249;-84
2021/04/05 04:38:51;;;;;;;13.43;5.28;;;5.80;98.30;;;;;;5088380;28;20270;-85
2021/04/05 04:41:22;;;;;;;7.53;5.05;;;5.80;98.50;;;;;;5082375;28;20210;-85
2021/04/05 04:43:53;;;;;;;11.43;6.50;;;5.70;98.70;;;;;;5080053;28;20185;-84
2021/04/05 04:46:20;;;;;;;8.18;5.40;;;5.70;98.90;;;;;;5078342;28;20290;-86
2021/04/05 04:48:46;;;;;;;10.70;5.40;;;5.80;99.00;;;;;;5077484;28;20210;-86
2021/04/05 04:51:13;;;;;;;11.85;5.80;;;5.80;99.00;;;;;;5077452;28;20347;-85
2021/04/05 04:53:39;;;;;;;10.52;5.40;;;5.70;99.20;;;;;;5077882;28;20220;-86
2021/04/05 04:56:06;;;;;;;13.98;5.97;;;5.70;99.30;;;;;;5076703;28;20289;-86
2021/04/05 04:58:36;;;;;;;9.50;5.70;;;5.70;99.40;;;;;;5082408;28;20261;-86
2021/04/05 05:01:03;;;;;;;13.73;6.70;;;5.90;99.30;;;;;;5076753;28;20194;-86
2021/04/05 05:03:31;;;;;;;9.68;5.78;;;5.80;99.20;;;;;;5078553;28;20198;-84
2021/04/05 05:06:02;;;;;;;9.77;5.72;;;5.80;99.00;;;;;;5078320;28;20222;-85
2021/04/05 05:08:29;;;;;;;9.38;5.53;;;5.90;98.90;;;;;;5078154;28;20198;-85
2021/04/05 05:10:56;;;;;;;11.95;5.53;;;6.00;98.90;;;;;;5062098;28;20724;-85
2021/04/05 05:13:22;;;;;;;11.68;4.97;;;6.10;98.70;;;;;;5077741;28;20711;-85
2021/04/05 05:15:52;;;;;;;9.60;5.13;;;6.10;98.60;;;;;;5087468;28;20234;-84
2021/04/05 05:18:18;;;;;;;14.52;5.20;;;6.30;98.40;;;;;;5090138;28;20273;-85
2021/04/05 05:20:44;;;;;;;10.88;5.20;;;6.10;98.10;;;;;;5078663;28;20221;-85
2021/04/05 05:23:11;;;;;;;12.63;5.43;;;6.20;97.80;;;;;;5080342;28;20230;-85
2021/04/05 05:25:41;;;;;;;6.72;4.63;;;6.50;97.80;;;;;;5080993;28;20241;-85
2021/04/05 05:28:09;;;;;;;8.90;4.97;;;6.50;97.30;;;;;;5081596;28;20292;-85
2021/04/05 05:30:37;;;;;;;8.43;5.00;;;6.80;96.80;;;;;;5081494;28;20210;-85
2021/04/05 05:33:06;;;;;;;13.75;5.10;;;6.90;96.20;;;;;;5081181;28;20319;-85
2021/04/05 05:35:33;;;;;;;12.03;5.40;;;6.80;95.70;;;;;;5080058;28;20218;-85
2021/04/05 05:38:01;;;;;;;10.93;5.67;;;7.20;95.50;;;;;;5080301;28;20491;-85
2021/04/05 05:40:29;;;;;;;8.10;4.55;;;7.20;95.10;;;;;;5080858;28;20451;-84
2021/04/05 05:43:09;;;;;;;10.70;5.00;;;7.20;95.20;;;;;;5081034;28;20235;-85
2021/04/05 05:45:43;;;;;;;10.13;5.03;;;7.30;95.20;;;;;;5082154;28;20229;-84
2021/04/05 05:48:22;;;;;;;10.60;4.97;;;7.20;94.90;;;;;;5079662;28;20213;-85
2021/04/05 05:50:55;;;;;;;8.77;4.38;;;7.10;94.80;;;;;;5083111;28;20567;-84
2021/04/05 05:53:35;;;;;;;8.27;5.37;;;7.20;94.70;;;;;;5081911;28;20225;-84
2021/04/05 05:56:30;;;;;;;11.50;5.60;;;7.30;94.70;;;;;;5079955;22;20613;-80
2021/04/05 05:59:04;;;;;;;8.47;4.97;;;7.20;94.70;;;;;;5068473;28;20213;-80
2021/04/05 06:01:43;;;;;;;9.20;5.27;;;7.40;94.70;;;;;;5074636;28;20539;-80
2021/04/05 06:04:29;;;;;;;8.05;4.30;;;7.30;94.50;;;;;;5068475;28;21228;-80
2021/04/05 06:07:00;;;;;;;8.70;4.77;;;7.30;94.40;;;;;;5061254;28;20260;-80
2021/04/05 06:09:39;;;;;;;15.97;4.57;;;7.60;94.50;;;;;;5075257;28;20543;-80
2021/04/05 06:12:12;;;;;;;11.10;4.83;;;7.50;94.40;;;;;;5072417;28;20561;-80
2021/04/05 06:14:52;;;;;;;8.30;4.73;;;7.40;94.30;;;;;;5055798;28;20574;-80
2021/04/05 06:17:32;;;;;;;10.33;4.57;;;7.60;94.10;;;;;;5068222;28;20493;-80
2021/04/05 06:20:07;;;;;;;13.80;5.83;;;7.50;93.70;;;;;;5070010;28;20486;-80
2021/04/05 06:22:51;;;;;;;9.67;4.90;;;7.90;93.80;;;;;;5067447;28;20558;-80
2021/04/05 06:25:24;;;;;;;11.20;5.07;;;8.30;93.10;;;;;;5075644;28;20545;-80
2021/04/05 06:27:55;;;;;;;7.17;4.47;;;8.40;92.20;;;;;;5075026;28;20545;-81
2021/04/05 06:30:38;;;;;;;5.37;3.80;;;8.40;92.10;;;;;;5076211;28;20543;-80
2021/04/05 06:33:12;;;;;;;11.33;4.77;;;8.40;92.00;;;;;;5065404;28;20485;-81
2021/04/05 06:36:00;;;;;;;10.50;4.90;;;8.30;91.70;;;;;;5073206;28;20538;-79
2021/04/05 06:38:32;;;;;;;10.83;5.37;;;8.60;91.70;;;;;;5085979;28;20456;-79
2021/04/05 06:41:06;;;;;;;7.87;5.13;;;8.50;91.60;;;;;;5085610;28;20468;-79
2021/04/05 06:44:00;;;;;;;15.63;5.63;;;8.60;91.20;;;;;;5087770;28;20526;-79
2021/04/05 06:46:36;;;;;;;11.03;5.10;;;8.70;91.00;;;;;;5092971;28;20494;-79
2021/04/05 06:49:15;;;;;;;7.70;4.40;;;8.70;90.70;;;;;;5081923;28;20453;-79
2021/04/05 06:51:56;;;;;;;10.07;5.30;;;8.70;90.60;;;;;;5081479;28;20513;-80
2021/04/05 06:54:48;;;;;;;13.73;5.30;;;8.90;90.50;;;;;;5081021;28;20459;-80
2021/04/05 06:57:17;;;;;;;9.37;4.73;;;9.00;89.90;;;;;;5061463;28;20555;-80
2021/04/05 06:59:56;;;;;;;8.97;4.57;;;9.30;89.70;;;;;;5065855;28;20452;-80
2021/04/05 07:03:07;;;;;;;7.83;4.30;;;9.40;89.30;;;;;;5085644;28;20486;-81
2021/04/05 07:05:57;;;;;;;9.53;5.13;;;9.70;88.30;;;;;;5085171;28;20555;-81
2021/04/05 07:08:31;;;;;;;11.83;5.03;;;9.90;87.40;;;;;;5082740;28;20502;-81
2021/04/05 07:11:12;;;;;;;8.90;4.87;;;10.00;84.20;;;;;;5086087;28;20452;-81
2021/04/05 07:13:55;;;;;;;10.67;5.50;;;10.10;84.00;;;;;;5085291;28;20478;-81
2021/04/05 07:16:36;;;;;;;8.63;4.47;;;10.10;83.00;;;;;;5085007;28;21055;-81
2021/04/05 07:19:17;;;;;;;9.40;5.07;;;10.20;83.10;;;;;;5067524;28;20448;-81
2021/04/05 07:21:48;;;;;;;6.90;4.33;;;10.20;82.40;;;;;;5068852;28;20479;-79
2021/04/05 07:24:24;;;;;;;10.60;4.60;;;10.30;82.70;;;;;;5075706;28;20430;-79
2021/04/05 07:27:01;;;;;;;9.87;4.10;;;10.40;82.00;;;;;;5077288;28;20551;-80
2021/04/05 07:29:36;;;;;;;10.37;4.83;;;10.50;81.30;;;;;;5079563;28;20474;-80
2021/04/05 07:32:09;;;;;;;10.10;5.47;;;10.50;80.70;;;;;;5076682;28;20437;-80
2021/04/05 07:34:45;;;;;;;8.00;4.60;;;10.40;81.10;;;;;;5076452;28;20550;-80
2021/04/05 07:37:24;;;;;;;14.63;7.30;;;10.40;80.70;;;;;;5077537;28;20483;-80
2021/04/05 07:40:05;;;;;;;10.80;4.67;;;10.40;81.00;;;;;;5077259;28;20463;-80
2021/04/05 07:42:38;;;;;;;10.53;5.40;;;10.40;80.70;;;;;;5078697;28;20551;-81
2021/04/05 07:45:08;;;;;;;10.90;5.10;;;10.50;80.30;;;;;;5074804;28;20817;-80
2021/04/05 07:47:41;;;;;;;10.57;5.40;;;10.60;80.50;;;;;;5074531;28;20443;-80
2021/04/05 07:50:13;;;;;;;9.97;5.30;;;10.60;80.10;;;;;;5072730;28;20482;-80
2021/04/05 07:52:48;;;;;;;8.10;4.60;;;10.70;81.00;;;;;;5071936;28;20839;-83
2021/04/05 07:55:16;;;;;;;10.80;4.57;;;10.80;80.10;;;;;;5069814;28;20487;-77
2021/04/05 07:57:51;;;;;;;8.63;4.73;;;11.00;79.50;;;;;;5070561;28;20483;-82
2021/04/05 08:00:28;;;;;;;11.50;4.60;;;11.10;79.00;;;;;;5066393;28;20456;-81
2021/04/05 08:03:15;;;;;;;10.87;5.17;;;11.20;79.10;;;;;;5071479;28;20824;-78
2021/04/05 08:05:53;;;;;;;12.47;5.43;;;11.50;78.60;;;;;;5063929;28;20505;-79
2021/04/05 08:08:29;;;;;;;13.13;5.10;;;11.50;78.10;;;;;;5079195;28;20427;-79
2021/04/05 08:11:08;;;;;;;15.80;4.90;;;11.60;77.90;;;;;;5079172;28;20803;-79
2021/04/05 08:13:41;;;;;;;9.50;4.37;;;11.80;78.00;;;;;;5054857;28;20851;-77
2021/04/05 08:16:15;;;;;;;13.77;5.23;;;12.00;77.60;;;;;;5074133;28;20471;-79
2021/04/05 08:18:51;;;;;;;9.00;4.43;;;12.10;76.80;;;;;;5072025;28;20435;-79
2021/04/05 08:21:20;;;;;;;11.00;4.23;;;12.20;76.70;;;;;;5064052;28;20554;-79
2021/04/05 08:23:54;;;;;;;10.07;4.80;;;12.50;76.60;;;;;;5053298;28;20491;-79
2021/04/05 08:26:31;;;;;;;8.00;5.20;;;12.50;76.10;;;;;;5069748;28;20483;-78
2021/04/05 08:29:07;;;;;;;13.97;4.57;;;12.60;76.20;;;;;;5069710;28;20459;-75
2021/04/05 08:31:56;;;;;;;13.03;5.87;;;12.80;75.50;;;;;;5054939;28;20454;-76
2021/04/05 08:34:47;;;;;;;6.27;3.30;;;12.90;75.40;;;;;;5069605;28;20980;-76
2021/04/05 08:37:20;;;;;;;9.47;3.93;;;13.00;75.00;;;;;;5071399;28;20474;-77
2021/04/05 08:39:59;;;;;;;6.67;3.67;;;13.10;74.30;;;;;;5080270;28;20475;-80
2021/04/05 08:42:31;;;;;;;48.40;4.40;;;13.30;71.80;;;;;;5074132;28;20877;-79
2021/04/05 08:45:08;;;;;;;12.30;4.07;;;13.30;70.40;;;;;;5076016;28;20411;-77
2021/04/05 08:47:38;;;;;;;7.83;2.80;;;13.30;68.40;;;;;;5058461;28;20446;-76
2021/04/05 08:50:09;;;;;;;7.40;3.30;;;13.30;67.20;;;;;;5073103;28;20504;-77
2021/04/05 08:52:39;;;;;;;7.53;2.60;;;13.30;63.70;;;;;;5070535;28;20447;-76
2021/04/05 08:55:08;;;;;;;9.33;3.60;;;13.30;62.70;;;;;;5069338;28;20440;-78
2021/04/05 08:57:42;;;;;;;7.43;2.70;;;13.20;62.20;;;;;;5074242;28;20443;-77
2021/04/05 09:00:10;;;;;;;7.17;3.40;;;13.30;62.60;;;;;;5076952;28;20450;-76
2021/04/05 09:02:39;;;;;;;8.50;2.97;;;13.40;62.40;;;;;;5075717;28;20461;-77
2021/04/05 09:05:10;;;;;;;8.07;2.90;;;13.50;62.70;;;;;;5074431;28;20479;-78
2021/04/05 09:07:53;;;;;;;7.00;3.10;;;13.60;62.30;;;;;;5075974;28;20453;-78
2021/04/05 09:10:25;;;;;;;6.70;3.00;;;13.50;61.60;;;;;;5061765;28;20812;-77
2021/04/05 09:12:53;;;;;;;9.03;3.50;;;13.30;62.10;;;;;;5074904;28;20437;-79
2021/04/05 09:15:58;;;;;;;7.57;3.20;;;13.30;63.20;;;;;;5079784;28;20563;-79
2021/04/05 09:19:07;;;;;;;7.50;3.80;;;13.10;63.10;;;;;;5053388;28;20483;-78
2021/04/05 09:21:59;;;;;;;10.53;3.40;;;12.90;63.20;;;;;;5073383;28;20466;-78
2021/04/05 09:24:53;;;;;;;11.60;5.27;;;12.90;63.70;;;;;;5074213;28;20478;-77
2021/04/05 09:27:48;;;;;;;12.00;3.53;;;12.80;64.20;;;;;;5077519;28;20475;-79
2021/04/05 09:30:44;;;;;;;8.30;4.20;;;12.80;64.90;;;;;;5064513;28;20487;-78
2021/04/05 09:33:38;;;;;;;7.20;3.60;;;12.80;65.20;;;;;;5073716;28;20430;-78
2021/04/05 09:36:25;;;;;;;6.93;4.03;;;12.90;64.70;;;;;;5053697;28;20419;-78
2021/04/05 09:39:21;;;;;;;9.70;3.70;;;13.00;63.40;;;;;;5060403;28;20543;-80
2021/04/05 09:42:08;;;;;;;8.53;3.50;;;13.00;62.60;;;;;;5079277;28;20464;-79
2021/04/05 09:44:55;;;;;;;7.93;3.70;;;12.90;62.00;;;;;;5080714;28;20813;-80
2021/04/05 09:47:40;;;;;;;7.27;3.33;;;13.00;62.60;;;;;;5073967;28;20449;-79
2021/04/05 09:50:17;;;;;;;6.30;3.10;;;13.20;61.90;;;;;;5074329;28;20429;-80
2021/04/05 09:53:15;;;;;;;6.20;3.17;;;13.30;61.00;;;;;;5073909;28;20451;-80
2021/04/05 09:55:47;;;;;;;9.37;3.73;;;13.50;60.00;;;;;;5074313;28;20470;-79
2021/04/05 09:58:20;;;;;;;8.40;3.50;;;13.40;59.20;;;;;;5073920;28;20442;-78
2021/04/05 10:00:56;;;;;;;7.80;3.20;;;13.40;58.60;;;;;;5079558;28;20453;-80
2021/04/05 10:03:25;;;;;;;10.03;3.80;;;13.40;57.80;;;;;;5079334;28;20422;-80
2021/04/05 10:05:53;;;;;;;10.70;4.07;;;13.30;57.40;;;;;;5079249;28;20454;-79
2021/04/05 10:08:24;;;;;;;10.90;4.13;;;13.20;57.40;;;;;;5076894;28;20453;-78
2021/04/05 10:10:53;;;;;;;7.57;3.33;;;13.20;57.20;;;;;;5076328;28;20430;-78
2021/04/05 10:13:22;;;;;;;7.97;2.87;;;13.20;57.50;;;;;;5078490;28;20426;-78
2021/04/05 10:15:51;;;;;;;7.40;3.47;;;13.40;57.70;;;;;;5085341;28;20508;-79
2021/04/05 10:18:18;;;;;;;8.30;3.70;;;13.40;57.30;;;;;;5083761;28;20486;-79
2021/04/05 10:20:49;;;;;;;7.70;3.23;;;13.40;57.20;;;;;;5085788;28;20421;-79
2021/04/05 10:23:19;;;;;;;16.50;4.17;;;13.40;56.70;;;;;;5082697;28;20418;-79
2021/04/05 10:25:51;;;;;;;9.70;3.43;;;13.30;56.70;;;;;;5078395;28;20534;-78
2021/04/05 10:28:19;;;;;;;8.77;3.30;;;13.60;56.90;;;;;;5076577;28;20459;-79
2021/04/05 10:30:52;;;;;;;7.80;3.60;;;13.60;56.60;;;;;;5073960;28;20423;-79
2021/04/05 10:33:22;;;;;;;8.33;3.63;;;13.60;56.30;;;;;;5072575;28;20480;-78
2021/04/05 10:35:54;;;;;;;7.13;2.80;;;13.70;55.50;;;;;;5070659;28;20448;-75
2021/04/05 10:38:22;;;;;;;11.17;3.50;;;13.80;54.90;;;;;;5059087;28;20489;-78
2021/04/05 10:40:51;;;;;;;7.03;3.13;;;13.60;54.50;;;;;;5058681;28;20573;-79
2021/04/05 10:43:22;;;;;;;7.33;3.17;;;13.70;54.30;;;;;;5076988;28;20610;-80
2021/04/05 10:45:57;;;;;;;7.57;3.40;;;13.80;53.70;;;;;;5072970;28;20478;-75
2021/04/05 10:48:33;;;;;;;9.03;3.30;;;13.80;52.90;;;;;;5072661;28;20419;-78
2021/04/05 10:51:07;;;;;;;6.87;2.90;;;13.70;52.70;;;;;;5064189;28;20490;-78
2021/04/05 10:53:38;;;;;;;7.50;2.83;;;13.80;53.00;;;;;;5055117;28;20536;-82
2021/04/05 10:56:07;;;;;;;7.63;3.23;;;13.90;52.40;;;;;;5067605;28;20989;-80
2021/04/05 10:58:42;;;;;;;6.87;3.03;;;13.90;52.20;;;;;;5075361;28;20474;-79
2021/04/05 11:01:09;;;;;;;6.77;3.23;;;13.90;52.30;;;;;;5074704;28;20418;-79
2021/04/05 11:03:41;;;;;;;8.57;3.60;;;14.00;51.80;;;;;;5073521;28;20453;-80
2021/04/05 11:06:13;;;;;;;5.80;3.00;;;13.90;52.00;;;;;;5076714;28;20496;-79
2021/04/05 11:08:40;;;;;;;6.73;3.57;;;13.90;51.70;;;;;;5074290;28;20546;-79
2021/04/05 11:11:10;;;;;;;5.80;3.17;;;14.10;51.70;;;;;;5072299;28;20452;-79
2021/04/05 11:13:39;;;;;;;9.30;3.47;;;14.20;51.20;;;;;;5072805;28;20518;-78
2021/04/05 11:16:10;;;;;;;6.67;3.53;;;14.30;50.80;;;;;;5072137;28;20901;-79
2021/04/05 11:18:46;;;;;;;6.30;3.17;;;14.20;50.60;;;;;;5071666;28;20526;-78
2021/04/05 11:21:16;;;;;;;6.63;2.87;;;14.20;50.60;;;;;;5073107;28;20470;-79
2021/04/05 11:23:43;;;;;;;6.43;3.00;;;14.20;50.80;;;;;;5074621;28;20551;-78
2021/04/05 11:26:11;;;;;;;8.70;3.40;;;14.20;50.80;;;;;;5070073;28;20500;-76
2021/04/05 11:28:40;;;;;;;6.00;3.60;;;14.30;51.10;;;;;;5070627;28;20423;-76
2021/04/05 11:31:11;;;;;;;9.10;3.20;;;14.40;51.20;;;;;;5071119;28;20433;-76
2021/04/05 11:33:47;;;;;;;6.80;3.67;;;14.50;51.60;;;;;;5070484;28;20781;-76
2021/04/05 11:36:15;;;;;;;7.40;3.97;;;14.50;53.20;;;;;;5072149;28;20449;-78
2021/04/05 11:38:48;;;;;;;8.60;3.50;;;14.50;54.20;;;;;;5072257;28;20456;-80
2021/04/05 11:41:17;;;;;;;10.80;4.80;;;14.40;55.80;;;;;;5071271;28;20897;-78
2021/04/05 11:43:49;;;;;;;17.73;5.20;;;14.10;57.10;;;;;;5072262;28;20452;-78
2021/04/05 11:46:19;;;;;;;10.23;5.27;;;13.80;58.30;;;;;;5072438;28;20470;-79
2021/04/05 11:49:02;;;;;;;10.20;5.13;;;13.80;58.80;;;;;;5071558;28;20479;-79
2021/04/05 11:51:37;;;;;;;12.97;5.40;;;14.00;59.20;;;;;;5071591;28;20517;-78
2021/04/05 11:54:07;;;;;;;11.03;5.67;;;14.00;59.40;;;;;;5073701;28;20437;-78
2021/04/05 11:56:36;;;;;;;8.40;4.37;;;14.10;60.20;;;;;;5068398;28;20479;-79
2021/04/05 11:59:08;;;;;;;10.83;5.90;;;14.10;60.80;;;;;;5051277;28;20473;-79
2021/04/05 12:01:41;;;;;;;9.90;5.63;;;13.80;61.50;;;;;;5052342;28;20435;-80
2021/04/05 12:04:17;;;;;;;8.70;4.70;;;13.90;62.00;;;;;;5054651;28;20535;-80
2021/04/05 12:06:48;;;;;;;9.10;5.30;;;14.00;61.70;;;;;;5055948;28;20492;-80
2021/04/05 12:09:22;;;;;;;14.57;5.20;;;13.90;61.70;;;;;;5070849;28;20515;-79
2021/04/05 12:11:53;;;;;;;9.50;6.50;;;13.60;62.10;;;;;;5075524;28;20649;-80
2021/04/05 12:14:25;;;;;;;17.00;6.17;;;13.50;62.90;;;;;;5056951;28;20507;-79
2021/04/05 12:16:54;;;;;;;11.33;6.17;;;13.60;62.80;;;;;;5072140;28;20791;-80
2021/04/05 12:19:24;;;;;;;16.20;6.43;;;13.60;62.60;;;;;;5075730;28;20427;-79
2021/04/05 12:21:53;;;;;;;12.43;6.70;;;13.60;63.80;;;;;;5075824;28;20426;-79
2021/04/05 12:24:31;;;;;;;11.20;6.47;;;13.40;64.10;;;;;;5152672;22;21870;-85
2021/04/05 12:27:01;;;;;;;17.93;6.90;;;13.30;65.00;;;;;;5087567;28;20514;-80
2021/04/05 12:29:29;;;;;;;19.70;8.27;;;13.20;67.40;;;;;;5069418;28;20873;-82
2021/04/05 12:31:57;;;;;;;16.20;8.47;;;13.00;68.40;;;;;;5057063;28;20434;-83
2021/04/05 12:34:28;;;;;;;21.87;7.10;;;13.10;68.90;;;;;;5064189;28;21022;-87
2021/04/05 12:36:58;;;;;;;13.17;7.63;;;13.20;69.70;;;;;;5057761;28;20411;-82
2021/04/05 12:39:29;;;;;;;13.43;7.80;;;13.20;70.00;;;;;;5073019;28;20434;-81
2021/04/05 12:41:57;;;;;;;15.57;6.90;;;13.10;70.80;;;;;;5055725;28;20445;-81
2021/04/05 12:44:29;;;;;;;14.47;7.30;;;12.80;71.50;;;;;;5073188;28;20518;-82
2021/04/05 12:46:58;;;;;;;11.07;7.67;;;12.90;71.60;;;;;;5059449;28;20477;-84
2021/04/05 12:49:27;;;;;;;8.37;4.67;;;12.60;73.40;;;;;;5073331;28;20528;-82
2021/04/05 12:51:57;;;;;;;13.70;7.27;;;12.50;73.30;;;;;;5076159;28;20513;-84
2021/04/05 12:54:27;;;;;;;16.40;8.27;;;12.50;73.50;;;;;;5075812;28;20504;-81
2021/04/05 12:56:56;;;;;;;13.80;7.70;;;12.60;73.70;;;;;;5076643;28;20451;-80
2021/04/05 12:59:24;;;;;;;15.67;8.57;;;12.60;73.70;;;;;;5076179;28;20452;-81
2021/04/05 13:01:53;;;;;;;14.23;8.30;;;12.70;73.80;;;;;;5074668;28;20459;-78
2021/04/05 13:04:21;;;;;;;20.87;9.50;;;12.80;73.70;;;;;;5077670;28;20502;-78
2021/04/05 13:06:53;;;;;;;17.57;8.03;;;12.90;74.00;;;;;;5074776;28;20838;-77
2021/04/05 13:09:23;;;;;;;13.07;8.50;;;13.00;73.90;;;;;;5074088;28;20480;-77
2021/04/05 13:11:55;;;;;;;18.13;8.27;;;13.10;73.70;;;;;;5074949;28;20542;-76
2021/04/05 13:14:27;;;;;;;14.23;7.37;;;13.10;74.00;;;;;;5073279;28;20443;-78